createdAt,value
2019-05-05T00:00:32.060Z,4.46
2019-05-05T00:04:54.455Z,4.40
2019-05-05T00:09:14.830Z,4.33
2019-05-05T00:13:35.284Z,4.25
2019-05-05T00:17:55.885Z,4.43
2019-05-05T00:22:16.577Z,4.08
2019-05-05T00:26:37.645Z,4.16
2019-05-05T00:30:58.083Z,4.16
2019-05-05T00:35:18.728Z,4.11
2019-05-05T00:39:39.688Z,4.14
2019-05-05T00:44:00.813Z,4.15
2019-05-05T00:48:21.881Z,4.19
2019-05-05T00:52:44.630Z,4.08
2019-05-05T00:57:04.686Z,4.25
2019-05-05T01:01:25.460Z,4.29
2019-05-05T01:05:46.552Z,4.08
2019-05-05T01:10:07.392Z,4.10
2019-05-05T01:14:28.095Z,4.10
2019-05-05T01:18:49.201Z,4.10
2019-05-05T01:23:10.103Z,4.09
2019-05-05T01:27:30.424Z,4.07
2019-05-05T01:31:51.478Z,3.89
2019-05-05T01:36:12.039Z,3.95
2019-05-05T01:40:32.455Z,3.95
2019-05-05T01:44:55.147Z,3.84
2019-05-05T01:49:15.691Z,3.77
2019-05-05T01:53:36.114Z,3.68
2019-05-05T01:57:57.681Z,3.66
2019-05-05T02:02:18.119Z,3.57
2019-05-05T02:06:39.175Z,3.68
2019-05-05T02:10:59.818Z,3.52
2019-05-05T02:15:21.862Z,3.47
2019-05-05T02:19:44.332Z,3.49
2019-05-05T02:24:05.285Z,3.52
2019-05-05T02:28:26.273Z,3.52
2019-05-05T02:32:46.794Z,3.48
2019-05-05T02:37:06.919Z,3.51
2019-05-05T02:41:28.116Z,3.57
2019-05-05T02:45:58.226Z,3.55
2019-05-05T02:50:19.489Z,3.55
2019-05-05T02:54:40.675Z,3.65
2019-05-05T02:59:04.424Z,3.45
2019-05-05T03:03:24.706Z,3.42
2019-05-05T03:07:45.655Z,3.42
2019-05-05T03:12:10.814Z,3.36
2019-05-05T03:16:35.033Z,3.48
2019-05-05T03:21:04.355Z,3.65
2019-05-05T03:25:18.053Z,3.67
2019-05-05T03:29:38.836Z,3.62
2019-05-05T03:34:00.538Z,3.57
2019-05-05T03:38:21.202Z,3.36
2019-05-05T03:42:41.612Z,3.48
2019-05-05T03:47:03.549Z,3.66
2019-05-05T03:51:24.332Z,3.75
2019-05-05T03:55:45.450Z,3.70
2019-05-05T04:00:07.382Z,3.74
2019-05-05T04:04:27.983Z,3.83
2019-05-05T04:08:48.442Z,3.78
2019-05-05T04:13:09.835Z,3.77
2019-05-05T04:17:30.590Z,3.93
2019-05-05T04:21:51.005Z,3.99
2019-05-05T04:26:11.591Z,4.03
2019-05-05T04:30:33.837Z,4.03
2019-05-05T04:34:54.917Z,4.06
2019-05-05T04:39:15.784Z,4.06
2019-05-05T04:43:36.400Z,4.09
2019-05-05T04:47:57.189Z,4.14
2019-05-05T04:52:17.798Z,4.07
2019-05-05T04:56:39.027Z,4.18
2019-05-05T05:00:59.575Z,4.25
2019-05-05T05:05:20.020Z,4.41
2019-05-05T05:09:40.757Z,4.58
2019-05-05T05:14:03.741Z,4.67
2019-05-05T05:18:24.649Z,4.79
2019-05-05T05:22:45.366Z,4.93
2019-05-05T05:27:05.520Z,5.04
2019-05-05T05:31:26.190Z,5.27
2019-05-05T05:35:46.799Z,5.34
2019-05-05T05:40:07.565Z,5.43
2019-05-05T05:44:28.312Z,5.61
2019-05-05T05:48:48.562Z,5.76
2019-05-05T05:53:09.131Z,5.94
2019-05-05T05:57:31.370Z,5.90
2019-05-05T06:02:06.650Z,6.02
2019-05-05T06:06:14.704Z,6.24
2019-05-05T06:10:35.220Z,6.28
2019-05-05T06:14:56.065Z,6.61
2019-05-05T06:19:16.253Z,6.75
2019-05-05T06:23:37.588Z,6.80
2019-05-05T06:27:58.209Z,6.70
2019-05-05T06:32:18.279Z,6.71
2019-05-05T06:36:38.567Z,6.90
2019-05-05T06:40:59.077Z,7.02
2019-05-05T06:45:20.124Z,7.14
2019-05-05T06:49:40.280Z,7.04
2019-05-05T06:54:01.627Z,7.16
2019-05-05T06:58:24.211Z,7.14
2019-05-05T07:02:44.580Z,7.15
2019-05-05T07:07:05.662Z,6.94
2019-05-05T07:11:26.629Z,6.81
2019-05-05T07:15:51.497Z,6.90
2019-05-05T07:20:13.579Z,6.80
2019-05-05T07:24:34.582Z,6.72
2019-05-05T07:28:55.617Z,6.82
2019-05-05T07:33:16.032Z,6.51
2019-05-05T07:37:36.563Z,6.90
2019-05-05T07:41:57.190Z,7.00
2019-05-05T07:46:17.831Z,6.91
2019-05-05T07:50:38.423Z,6.81
2019-05-05T07:54:59.188Z,7.06
2019-05-05T07:59:19.770Z,7.33
2019-05-05T08:03:40.858Z,7.59
2019-05-05T08:08:04.474Z,8.00
2019-05-05T08:12:24.928Z,8.00
2019-05-05T08:16:45.801Z,8.32
2019-05-05T08:21:07.309Z,8.59
2019-05-05T08:25:37.473Z,9.00
2019-05-05T08:29:50.850Z,9.09
2019-05-05T08:34:14.263Z,8.81
2019-05-05T08:38:34.879Z,8.92
2019-05-05T08:42:55.355Z,9.07
2019-05-05T08:47:16.607Z,9.11
2019-05-05T08:51:37.713Z,9.17
2019-05-05T08:55:59.057Z,9.01
2019-05-05T09:00:20.282Z,9.19
2019-05-05T09:04:41.702Z,9.19
2019-05-05T09:09:03.920Z,9.23
2019-05-05T09:13:25.302Z,9.33
2019-05-05T09:17:47.003Z,9.51
2019-05-05T09:22:08.763Z,9.66
2019-05-05T09:26:29.741Z,9.31
2019-05-05T09:30:50.028Z,9.21
2019-05-05T09:35:10.469Z,8.97
2019-05-05T09:39:34.721Z,8.68
2019-05-05T09:43:55.211Z,8.68
2019-05-05T09:48:15.525Z,9.04
2019-05-05T09:52:36.072Z,9.65
2019-05-05T09:56:56.319Z,9.65
2019-05-05T10:01:17.580Z,9.27
2019-05-05T10:05:38.481Z,10.29
2019-05-05T10:09:59.098Z,10.76
2019-05-05T10:14:20.010Z,10.70
2019-05-05T10:18:40.984Z,11.61
2019-05-05T10:23:01.528Z,11.61
2019-05-05T10:27:22.360Z,10.98
2019-05-05T10:31:43.775Z,10.81
2019-05-05T10:36:04.751Z,11.78
2019-05-05T10:40:25.490Z,11.95
2019-05-05T10:44:45.776Z,11.33
2019-05-05T10:49:06.943Z,10.76
2019-05-05T10:53:27.768Z,10.18
2019-05-05T10:57:49.144Z,9.85
2019-05-05T11:02:09.240Z,10.60
2019-05-05T11:06:29.728Z,11.37
2019-05-05T11:10:50.699Z,10.86
2019-05-05T11:15:14.220Z,10.86
2019-05-05T11:19:34.561Z,10.70
2019-05-05T11:23:55.297Z,10.45
2019-05-05T11:28:15.826Z,10.45
2019-05-05T11:32:36.879Z,10.60
2019-05-05T11:36:57.405Z,9.93
2019-05-05T11:41:18.033Z,10.00
2019-05-05T11:45:38.315Z,10.62
2019-05-05T11:49:58.959Z,11.12
2019-05-05T11:54:19.889Z,11.06
2019-05-05T11:58:44.053Z,11.24
2019-05-05T12:03:04.531Z,12.39
2019-05-05T12:07:25.161Z,11.94
2019-05-05T12:11:46.009Z,11.50
2019-05-05T12:16:07.111Z,11.54
2019-05-05T12:20:33.678Z,11.54
2019-05-05T12:24:54.300Z,12.12
2019-05-05T12:29:15.555Z,12.28
2019-05-05T12:33:36.180Z,12.65
2019-05-05T12:37:57.274Z,12.34
2019-05-05T12:42:19.403Z,11.90
2019-05-05T12:46:40.347Z,11.83
2019-05-05T12:51:01.761Z,12.27
2019-05-05T12:55:38.360Z,13.00
2019-05-05T12:59:46.760Z,12.93
2019-05-05T13:04:07.465Z,13.18
2019-05-05T13:08:27.986Z,13.46
2019-05-05T13:12:48.482Z,11.06
2019-05-05T13:17:09.443Z,10.14
2019-05-05T13:21:30.303Z,10.52
2019-05-05T13:25:55.944Z,11.09
2019-05-05T13:30:13.654Z,10.68
2019-05-05T13:34:34.306Z,10.39
2019-05-05T13:38:55.399Z,9.54
2019-05-05T13:43:16.382Z,10.58
2019-05-05T13:47:37.161Z,10.58
2019-05-05T13:51:57.802Z,11.36
2019-05-05T13:56:18.017Z,10.76
2019-05-05T14:00:38.739Z,11.42
2019-05-05T14:04:59.327Z,11.26
2019-05-05T14:09:19.907Z,11.57
2019-05-05T14:13:40.911Z,11.93
2019-05-05T14:18:01.282Z,11.93
2019-05-05T14:22:21.376Z,12.06
2019-05-05T14:26:42.118Z,11.84
2019-05-05T14:31:02.770Z,11.98
2019-05-05T14:35:23.902Z,12.40
2019-05-05T14:39:44.545Z,12.70
2019-05-05T14:44:04.814Z,12.53
2019-05-05T14:48:25.784Z,12.36
2019-05-05T14:52:46.223Z,12.06
2019-05-05T14:57:06.600Z,11.91
2019-05-05T15:01:27.192Z,12.00
2019-05-05T15:05:47.849Z,12.34
2019-05-05T15:10:08.494Z,12.36
2019-05-05T15:14:29.146Z,12.57
2019-05-05T15:18:49.261Z,12.35
2019-05-05T15:23:09.898Z,12.02
2019-05-05T15:27:30.562Z,11.64
2019-05-05T15:31:53.719Z,11.77
2019-05-05T15:36:14.094Z,11.40
2019-05-05T15:40:34.458Z,11.64
2019-05-05T15:44:55.359Z,11.64
2019-05-05T15:49:16.032Z,11.46
2019-05-05T15:53:36.301Z,11.58
2019-05-05T15:57:56.505Z,11.70
2019-05-05T16:02:17.334Z,11.57
2019-05-05T16:06:37.866Z,10.71
2019-05-05T16:10:58.666Z,10.71
2019-05-05T16:15:19.820Z,9.86
2019-05-05T16:19:40.260Z,10.71
2019-05-05T16:24:00.492Z,10.70
2019-05-05T16:28:20.937Z,10.70
2019-05-05T16:32:41.787Z,11.06
2019-05-05T16:37:03.859Z,11.16
2019-05-05T16:41:24.398Z,11.62
2019-05-05T16:45:44.668Z,11.62
2019-05-05T16:50:06.874Z,12.21
2019-05-05T16:54:27.604Z,12.72
2019-05-05T16:58:47.864Z,13.39
2019-05-05T17:03:08.047Z,12.75
2019-05-05T17:07:28.796Z,13.11
2019-05-05T17:11:49.604Z,12.91
2019-05-05T17:16:09.781Z,12.01
2019-05-05T17:20:30.561Z,12.52
2019-05-05T17:24:53.421Z,12.57
2019-05-05T17:29:14.599Z,12.98
2019-05-05T17:33:35.304Z,12.85
2019-05-05T17:37:55.390Z,12.41
2019-05-05T17:42:16.815Z,12.13
2019-05-05T17:46:37.218Z,11.71
2019-05-05T17:50:57.908Z,11.83
2019-05-05T17:55:18.459Z,11.10
2019-05-05T17:59:39.228Z,11.09
2019-05-05T18:03:59.810Z,11.33
2019-05-05T18:08:19.988Z,11.17
2019-05-05T18:12:40.575Z,11.22
2019-05-05T18:17:01.538Z,11.20
2019-05-05T18:21:23.624Z,10.91
2019-05-05T18:25:44.312Z,10.87
2019-05-05T18:30:05.542Z,10.86
2019-05-05T18:34:25.932Z,10.86
2019-05-05T18:38:46.831Z,10.69
2019-05-05T18:43:07.715Z,10.53
2019-05-05T18:47:28.761Z,10.18
2019-05-05T18:51:50.526Z,9.71
2019-05-05T18:56:11.682Z,9.54
2019-05-05T19:00:34.304Z,9.53
2019-05-05T19:04:55.334Z,9.53
2019-05-05T19:09:16.706Z,9.73
2019-05-05T19:13:38.431Z,9.92
2019-05-05T19:18:01.079Z,9.84
2019-05-05T19:22:21.732Z,10.05
2019-05-05T19:26:42.143Z,10.14
2019-05-05T19:31:04.298Z,9.86
2019-05-05T19:35:40.228Z,10.05
2019-05-05T19:39:51.625Z,10.02
2019-05-05T19:44:12.017Z,9.85
2019-05-05T19:48:33.977Z,9.85
2019-05-05T19:52:54.930Z,9.78
2019-05-05T19:57:15.665Z,9.66
2019-05-05T20:01:37.967Z,9.66
2019-05-05T20:05:58.631Z,9.56
2019-05-05T20:10:20.080Z,9.28
2019-05-05T20:14:43.622Z,9.09
2019-05-05T20:19:43.740Z,9.19
2019-05-05T20:24:07.367Z,9.12
2019-05-05T20:28:34.873Z,8.99
2019-05-05T20:32:57.005Z,9.03
2019-05-05T20:37:18.946Z,8.62
2019-05-05T20:41:43.609Z,8.75
2019-05-05T20:46:04.731Z,8.98
2019-05-05T20:50:26.233Z,8.69
2019-05-05T20:54:46.974Z,8.77
2019-05-05T20:59:07.604Z,8.82
2019-05-05T21:03:28.415Z,8.70
2019-05-05T21:07:49.063Z,8.54
2019-05-05T21:12:10.183Z,8.32
2019-05-05T21:16:31.288Z,8.19
2019-05-05T21:20:52.083Z,8.16
2019-05-05T21:25:14.253Z,8.15
2019-05-05T21:29:41.595Z,8.01
2019-05-05T21:33:57.564Z,7.98
2019-05-05T21:38:18.384Z,7.92
2019-05-05T21:42:39.205Z,7.74
2019-05-05T21:47:00.378Z,7.76
2019-05-05T21:51:21.381Z,7.69
2019-05-05T21:55:43.927Z,7.58
2019-05-05T22:00:04.966Z,7.65
2019-05-05T22:04:25.209Z,7.56
2019-05-05T22:08:46.494Z,7.64
2019-05-05T22:13:06.879Z,7.43
2019-05-05T22:17:27.899Z,7.29
2019-05-05T22:21:48.527Z,7.03
2019-05-05T22:26:09.826Z,6.70
2019-05-05T22:34:30.777Z,7.18
2019-05-05T22:38:51.630Z,6.96
2019-05-05T22:43:14.337Z,7.07
2019-05-05T22:47:34.795Z,7.10
2019-05-05T22:51:55.555Z,7.00
2019-05-05T22:56:15.937Z,7.02
2019-05-05T23:00:36.558Z,6.84
2019-05-05T23:04:57.012Z,6.85
2019-05-05T23:09:17.075Z,6.90
2019-05-05T23:13:37.900Z,6.97
2019-05-05T23:17:58.815Z,6.98
2019-05-05T23:22:18.835Z,6.98
2019-05-05T23:26:39.424Z,6.99
2019-05-05T23:30:59.829Z,6.99
2019-05-05T23:35:19.810Z,6.89
2019-05-05T23:39:40.329Z,6.76
2019-05-05T23:44:03.551Z,6.68
2019-05-05T23:48:24.196Z,6.48
2019-05-05T23:52:45.177Z,6.42
2019-05-05T23:57:05.608Z,6.23
